x

Georges Bank 170 Nm East Of Hyannis, Ma (44011) Wave Buoy

10:50am - Fri 4th Sep 2015 All times are EDT. -4 hours from GMT.

  • Sig Wave height 1.3ft
  • Swell Direction
  • Peak Period 11s
  • Average Period 4s
  • Wind
    9mph, 11mph gusts
  • Sea Temp 68°f
  • Air Temp 67°f
  • Sea Pressure 1016.5mb
  • Georges Bank 170 Nm East Of Hyannis, Ma
  • Georges Bank 170 Nm East Of Hyannis, Ma

More Historic Weather Station data

Upgrade to MSW Pro to gain access to the past 30 days of data for over 8000 Wavebouys and Weather Stations around the globe.

Join Pro

Comparision Forecast

View Surf forecast
   
Fri 09/04 10:50am 1.3ft 11s 4s 9 11 mph 1016.5mb 68f 67f
9:50am 1.3ft 13s 5s 13 16 mph 1016.5mb 69f 66f
8:50am 1.3ft 12s 6s 13 16 mph 1016mb 70f 67f
7:50am 1.3ft 12s 6s 9 11 mph 1015.5mb 70f 67f
6:50am 1.3ft 12s 6s 9 11 mph 1014.6mb 69f 67f
5:50am 1.3ft 12s 6s 9 11 mph 1013.6mb 70f 67f
4:50am 1.3ft 7s 7s 9 11 mph 1013.3mb 70f 67f
3:50am 1.3ft 12s 6s 9 11 mph 1013.1mb 70f 70f
2:50am 1.3ft 8s 6s 4 7 mph 1012.7mb 69f 70f
1:50am 1.3ft 8s 6s 4
mph
1012.8mb 69f 70f
12:50am 1.3ft 8s 6s 2
mph
1012.6mb 69f 70f
Thu 09/03 11:50pm 1.3ft 11s 6s 2
mph
1012.5mb 69f 70f
10:50pm 1.3ft 11s 6s 2
mph
1012.3mb 69f 70f
9:50pm 1.3ft 8s 6s 2 4 mph 1012.3mb 69f 70f
8:50pm 1.6ft 8s 6s 2
mph
1012mb 71f 70f
7:50pm 1.6ft 8s 6s 4
mph
1011.7mb 72f 71f
6:50pm 1.6ft 7s 6s 4
mph
1011.5mb 72f 72f
5:50pm 1.6ft 11s 6s 4
mph
1011.2mb 72f 73f
4:50pm 1.6ft 9s 6s 7
mph
1011mb 72f 73f
3:50pm 1.6ft 11s 6s 4 7 mph 1010.8mb 71f 73f
2:50pm 1.6ft 7s 6s 7
mph
1011mb 71f 73f
1:50pm 1.3ft 10s 5s 7
mph
1011.3mb 71f 73f
12:50pm 1.6ft 8s 6s 7 9 mph 1011.5mb 71f 72f
11:50am 1.6ft 8s 5s 7 9 mph 1011.7mb 70f 73f
10:50am 1.6ft 8s 5s 9
mph
1011.8mb 69f 73f
9:50am 2ft 7s 5s 4 7 mph 1011.9mb 68f 71f
8:50am 1.6ft 8s 6s 7
mph
1012mb 69f 71f
7:50am 2ft 8s 6s 7 9 mph 1012.1mb 69f 71f
6:50am 2ft 9s 6s 7 9 mph 1011.9mb 69f 71f
5:50am 2ft 7s 6s 7 9 mph 1011.7mb 69f 70f
4:50am 1.6ft 11s 6s 7 9 mph 1011.6mb 69f 70f
3:50am 2ft 7s 6s 7 9 mph 1011.5mb 70f 70f
2:50am 1.6ft 8s 6s 7 9 mph 1011.7mb 69f 70f
1:50am 2ft 8s 6s 9 11 mph 1011.9mb 70f 70f
12:50am 1.6ft 11s 6s 11
mph
1012.3mb 70f 70f
Wed 09/02 11:50pm 1.6ft 7s 6s 9 11 mph 1012.8mb 71f 70f
10:50pm 1.6ft 10s 6s 9 11 mph 1013.1mb 70f 69f
9:50pm 2ft 7s 6s 7 9 mph 1013.1mb 70f 69f
8:50pm 2ft 7s 6s 7
mph
1013.4mb 70f 69f
7:50pm 2ft 7s 6s 7 9 mph 1013.6mb 71f 69f
6:50pm 2.5ft 7s 6s 9
mph
1013.7mb 71f 69f
5:50pm 2ft 8s 6s 7 9 mph 1014mb 71f 70f
4:50pm 2ft 12s 6s 7 9 mph 1014.2mb 71f 70f
3:50pm 2.5ft 6s 6s 4 7 mph 1014.5mb 71f 69f
2:50pm 2.5ft 7s 6s 7 9 mph 1015.1mb 71f 68f
1:50pm 2ft 6s 6s 4 7 mph 1015.7mb 71f 68f
12:50pm 2.5ft 6s 6s 7 9 mph 1016mb 71f 67f
11:50am 2.5ft 6s 6s 4 7 mph 1016.2mb 70f 67f
10:50am 2.5ft 7s 6s 2 4 mph 1016.6mb 70f 68f
9:50am 3ft 7s 6s 2 4 mph 1016.8mb 69f 67f
8:50am 3ft 7s 5s 4 7 mph 1016.8mb 69f 66f
7:50am 3ft 8s 5s 7 9 mph 1017mb 69f 66f
6:50am 3ft 7s 5s 7 9 mph 1017mb 68f 66f
5:50am 3ft 7s 5s 7 9 mph 1016.6mb 68f 66f
4:50am 2.5ft 5s 5s 7 9 mph 1016.4mb 69f 66f
3:50am 2.5ft 7s 6s 7 9 mph 1016.4mb 69f 65f
2:50am 2.5ft 6s 6s 7
mph
1016.6mb 69f 65f
1:50am 3ft 6s 6s 7 9 mph 1016.8mb 68f 65f
12:50am 3ft 6s 6s 7 9 mph 1017mb 68f 65f
Tue 09/01 11:50pm 3ft 7s 6s 9 11 mph 1017mb 68f 65f
10:50pm 3.5ft 7s 6s 9 11 mph 1017mb 68f 65f
9:50pm 4ft 8s 5s 11 13 mph 1017.2mb 68f 65f
8:50pm 4ft 7s 5s 11 13 mph 1016.9mb 67f 65f
7:50pm 4.5ft 8s 6s 11 13 mph 1016.3mb 68f 66f
6:50pm 4ft 7s 6s 11 13 mph 1015.9mb 68f 66f
5:50pm 4ft 7s 6s 13 16 mph 1015.8mb 69f 67f
4:50pm 3.5ft 8s 6s 13 16 mph 1015.6mb 69f 68f
3:50pm 3.5ft 7s 6s 11 13 mph 1015.6mb 69f 68f
2:50pm 4ft 7s 6s 11 13 mph 1015.7mb 69f 68f
1:50pm 4ft 7s 6s 11 13 mph 1015.7mb 69f 68f
12:50pm 3.5ft 7s 5s 13 16 mph 1015.3mb 69f 68f
11:50am 4ft 7s 5s 13 16 mph 1015.1mb 69f 68f
10:50am 4ft 7s 6s 16 18 mph 1015.2mb 69f 69f
9:50am 4.5ft 7s 6s 18 20 mph 1014.7mb 69f 69f
8:50am 5ft 8s 6s 11 16 mph 1014.1mb 67f 69f
7:50am 5ft 8s 6s 16 18 mph 1013.6mb 67f 69f
6:50am 4.5ft 7s 6s 11 16 mph 1012.9mb 67f 68f
5:50am 4ft 7s 6s 13
mph
1012.4mb 67f 68f
4:50am 4.5ft 6s 5s 13
mph
1011.9mb 67f 68f
3:50am 4.5ft 6s 5s 13 16 mph 1011.8mb 67f 67f
2:50am 4.5ft 7s 5s 18 20 mph 1011.7mb 67f 69f
1:50am 4ft 7s 5s 16 20 mph 1011.5mb 67f 70f
12:50am 3.5ft 6s 5s 16 18 mph 1011.9mb 67f 70f
Mon 08/31 11:50pm 3.5ft 5s 5s 16 18 mph 1012.2mb 68f 70f
10:50pm 3.5ft 5s 5s 16 18 mph 1012.1mb 68f 69f
9:50pm 3.5ft 5s 5s 16 18 mph 1012.2mb 68f 70f
8:50pm 3.5ft 10s 5s 16 18 mph 1012.3mb 68f 70f
7:50pm 3.5ft 9s 5s 13 16 mph 1012.2mb 68f 70f
6:50pm 3ft 9s 5s 13 16 mph 1012.1mb 68f 71f
5:50pm 3.5ft 10s 5s 13 16 mph 1012mb 69f 71f
4:50pm 3.5ft 10s 5s 13 16 mph 1012.3mb 69f 70f
3:50pm 3.5ft 11s 5s 16 18 mph 1012.5mb 69f 71f